Notice: Undefined index: language in /home/u232659314/public_html/vam/index.php on line 31
Pluna Virtual

METAR AND TAF INFORMATION
METAR FOR SURV
ADDS - METARS form results

(0215 UTC 25 March 2019)
Data provider http://aviationweather.gov/metar/data/
 
Forecast for: SURV (RIVERA , UY)
Text: SURV 242330Z 2500/2524 24015KT 9999 SCT020 TX21/2518Z TN12/2509Z
Forecast period: 0000 UTC 25 March 2019 to 0000 UTC 26 March 2019
Forecast type: FROM: standard forecast or significant change
Winds: from the WSW (240 degrees) at 17 MPH (15 knots; 7.7 m/s)
Visibility: 6 or more miles 10+ km)
Ceiling: at least 12,000 feet AGL
Clouds: scattered clouds at 2000 feet AGL
Weather: no significant weather forecast for this period

AIRPORT MAP

RUNWAY INFORMATION
Runway 05 Runway length 6004 ft Runway width 0 ft
Runway elevation 669 ft Runway displaced threshold 0 ft Runway heading 0
Runway 23 Runway length 6004 ft Runway width 0 ft
Runway elevation 719 ft Runway displaced threshold 0 ft Runway heading 0

AIRPORT FREQUENCIES

AIRPORT NEAR NAVIGATION AIDS
Type NDB Name Rivera Frequency 260 KHZ
Type NDB Name Rivera Frequency 305 KHZ